Time;durP1;ratioP1;P1;durP2;ratioP2;P2;SDS_P1;SDS_P2;PMS_P1;PMS_P2;Temp;Humidity;BMP_temperature;BMP_pressure;BME280_temperature;BME280_humidity;BME280_pressure;Samples;Min_cycle;Max_cycle;Signal;HPM_P1;HPM_P2
2020/12/18 00:01:07;;;;;;;29.73;16.50;;;;;;;8.69;59.66;100878.47;4273862;33;20406;-95
2020/12/18 00:03:32;;;;;;;26.40;14.05;;;;;;;8.50;59.65;100880.28;4274243;33;20152;-95
2020/12/18 00:05:58;;;;;;;27.83;15.00;;;;;;;8.64;59.66;100875.91;4272887;33;20170;-95
2020/12/18 00:08:23;;;;;;;32.45;15.13;;;;;;;8.62;59.66;100880.22;4271894;33;20200;-96
2020/12/18 00:10:49;;;;;;;31.60;15.27;;;;;;;8.58;59.65;100876.81;4272312;33;20140;-95
2020/12/18 00:13:14;;;;;;;31.20;16.15;;;;;;;8.60;59.66;100881.97;4270524;33;20088;-95
2020/12/18 00:15:39;;;;;;;33.10;17.27;;;;;;;8.31;59.64;100889.88;4285894;33;20152;-94
2020/12/18 00:18:05;;;;;;;31.20;16.90;;;;;;;8.27;59.64;100888.16;4269841;33;20124;-95
2020/12/18 00:20:30;;;;;;;27.80;15.57;;;;;;;8.61;59.66;100886.28;4269220;33;23258;-93
2020/12/18 00:22:56;;;;;;;27.65;15.52;;;;;;;8.65;59.66;100885.41;4268889;33;24540;-95
2020/12/18 00:25:21;;;;;;;30.00;15.55;;;;;;;8.54;59.66;100885.47;4272177;33;20112;-95
2020/12/18 00:27:46;;;;;;;28.90;15.88;;;;;;;8.21;59.63;100893.38;4277812;33;20064;-95
2020/12/18 00:30:12;;;;;;;31.95;17.70;;;;;;;8.59;59.66;100886.31;4274312;33;25315;-95
2020/12/18 00:32:41;;;;;;;35.30;18.02;;;;;;;8.64;59.66;100882.81;4270098;33;20116;-94
2020/12/18 00:35:07;;;;;;;30.00;16.95;;;;;;;8.69;59.66;100891.44;4280719;33;20143;-95
2020/12/18 00:37:33;;;;;;;31.98;16.67;;;;;;;8.68;59.66;100887.13;4269492;33;20179;-93
2020/12/18 00:39:58;;;;;;;32.15;16.00;;;;;;;8.83;59.67;100885.28;4268624;33;20146;-94
2020/12/18 00:42:24;;;;;;;33.70;16.83;;;;;;;8.51;59.66;100898.44;4268596;33;20093;-94
2020/12/18 00:44:49;;;;;;;31.85;16.42;;;;;;;8.57;59.65;100897.56;4268531;33;20455;-93
2020/12/18 00:47:15;;;;;;;29.90;15.85;;;;;;;8.56;59.65;100894.13;4268696;33;20525;-94
2020/12/18 00:49:40;;;;;;;27.10;14.80;;;;;;;8.51;59.66;100900.19;4269336;33;20122;-94
2020/12/18 00:52:06;;;;;;;26.25;15.23;;;;;;;8.63;59.66;100902.72;4268756;33;20089;-94
2020/12/18 00:54:31;;;;;;;27.13;15.35;;;;;;;8.63;59.66;100901.84;4269034;33;20134;-95
2020/12/18 00:56:57;;;;;;;28.67;16.00;;;;;;;8.63;59.66;100901.84;4268805;33;20151;-95
2020/12/18 00:59:22;;;;;;;33.53;17.12;;;;;;;8.50;59.64;100903.66;4269384;33;20112;-95
2020/12/18 01:01:48;;;;;;;26.17;15.55;;;;;;;8.80;59.66;100902.63;4269246;33;20176;-95
2020/12/18 01:04:13;;;;;;;28.92;16.35;;;;;;;8.92;59.68;100902.53;4280988;33;20150;-95
2020/12/18 01:06:39;;;;;;;31.65;16.37;;;;;;;8.63;59.66;100899.25;4270552;33;20160;-94
2020/12/18 01:09:04;;;;;;;32.63;17.85;;;;;;;8.56;59.65;100893.25;4269760;33;20103;-95
2020/12/18 01:11:30;;;;;;;27.87;15.85;;;;;;;8.47;59.65;100899.34;4270039;33;20107;-96
2020/12/18 01:13:55;;;;;;;30.77;15.77;;;;;;;8.70;59.66;100890.56;4269077;33;20104;-96
2020/12/18 01:16:20;;;;;;;32.65;17.05;;;;;;;8.79;59.67;100899.16;4268718;33;20112;-95
2020/12/18 01:18:46;;;;;;;32.70;16.92;;;;;;;8.52;59.65;100897.59;4268193;33;20151;-95
2020/12/18 01:21:11;;;;;;;27.52;14.15;;;;;;;8.60;59.66;100895.81;4280451;33;20114;-95
2020/12/18 01:23:37;;;;;;;29.08;15.80;;;;;;;8.99;59.68;100892.97;4269151;33;20143;-96
2020/12/18 01:26:02;;;;;;;33.55;17.30;;;;;;;8.81;59.66;100889.62;4269033;33;20134;-95
2020/12/18 01:28:28;;;;;;;29.67;16.23;;;;;;;8.68;59.66;100895.75;4281000;33;20093;-94
2020/12/18 01:30:53;;;;;;;28.60;15.43;;;;;;;8.65;59.66;100890.59;4269282;33;20151;-95
2020/12/18 01:33:18;;;;;;;31.92;15.35;;;;;;;8.81;59.66;100892.22;4270310;33;20482;-95
2020/12/18 01:35:44;;;;;;;27.65;14.90;;;;;;;8.79;59.66;100891.37;4268918;33;20140;-96
2020/12/18 01:38:10;;;;;;;31.12;14.80;;;;;;;8.98;59.68;100892.09;4269458;33;20481;-95
2020/12/18 01:40:35;;;;;;;26.42;13.62;;;;;;;8.92;59.67;100893.00;4269546;33;20417;-95
2020/12/18 01:43:01;;;;;;;27.10;13.95;;;;;;;8.77;59.67;100898.31;4268869;33;20119;-95
2020/12/18 01:45:26;;;;;;;29.00;13.40;;;;;;;8.80;59.66;100897.44;4268372;33;20718;-94
2020/12/18 01:47:52;;;;;;;29.20;14.87;;;;;;;8.91;59.68;100895.63;4270682;33;20119;-95
2020/12/18 01:50:17;;;;;;;34.60;17.87;;;;;;;8.65;59.66;100898.37;4271076;33;20131;-95
2020/12/18 01:52:43;;;;;;;32.92;17.33;;;;;;;8.89;59.68;100898.22;4283065;33;20348;-95
2020/12/18 01:55:08;;;;;;;35.53;18.02;;;;;;;8.60;59.66;100902.75;4270648;33;22682;-95
2020/12/18 01:57:35;;;;;;;31.65;16.25;;;;;;;8.58;59.65;100901.87;4271429;33;20383;-96
2020/12/18 02:00:01;;;;;;;35.40;17.52;;;;;;;8.84;59.67;100902.59;4270892;33;20226;-95
2020/12/18 02:02:27;;;;;;;38.03;17.67;;;;;;;8.58;59.65;100896.69;4271195;33;20128;-95
2020/12/18 02:04:52;;;;;;;33.53;17.65;;;;;;;8.85;59.67;100895.66;4270839;33;20126;-95
2020/12/18 02:07:27;;;;;;;36.38;17.75;;;;;;;8.52;59.66;100899.34;4270883;33;20104;-95
2020/12/18 02:09:53;;;;;;;32.97;17.15;;;;;;;8.61;59.66;100901.87;4270563;33;20100;-95
2020/12/18 02:12:21;;;;;;;35.25;18.08;;;;;;;8.65;59.66;100903.56;4270667;33;20143;-94
2020/12/18 02:14:50;;;;;;;35.00;18.52;;;;;;;8.70;59.66;100903.53;4270438;33;20103;-94
2020/12/18 02:17:16;;;;;;;35.05;18.58;;;;;;;8.59;59.66;100901.87;4271024;33;20053;-95
2020/12/18 02:19:43;;;;;;;34.85;17.17;;;;;;;8.77;59.67;100907.84;4270798;33;20093;-94
2020/12/18 02:22:15;;;;;;;33.35;17.12;;;;;;;8.91;59.68;100904.28;4270178;33;20120;-94
2020/12/18 02:24:41;;;;;;;32.58;17.02;;;;;;;8.86;59.67;100902.59;4270415;33;20108;-94
2020/12/18 02:27:09;;;;;;;38.35;18.45;;;;;;;8.91;59.68;100909.47;4270702;33;20144;-94
2020/12/18 02:29:35;;;;;;;34.72;17.05;;;;;;;8.63;59.66;100907.06;4270219;33;20111;-94
2020/12/18 02:32:01;;;;;;;39.60;18.48;;;;;;;8.73;59.66;100914.75;4269467;33;21724;-94
2020/12/18 02:34:27;;;;;;;37.20;18.25;;;;;;;8.81;59.66;100909.53;4269304;33;20176;-94
2020/12/18 02:36:52;;;;;;;36.65;18.70;;;;;;;8.80;59.66;100919.06;4269614;33;20140;-94
2020/12/18 02:39:17;;;;;;;32.85;18.20;;;;;;;8.55;59.65;100912.28;4269915;33;20183;-94
2020/12/18 02:41:43;;;;;;;38.72;19.87;;;;;;;8.73;59.66;100913.91;4272313;33;20120;-95
2020/12/18 02:44:09;;;;;;;35.45;17.27;;;;;;;8.80;59.66;100918.22;4291752;33;20740;-95
2020/12/18 02:46:34;;;;;;;36.33;18.15;;;;;;;8.71;59.66;100915.66;4276886;33;20100;-95
2020/12/18 02:49:00;;;;;;;35.97;18.48;;;;;;;8.48;59.65;100921.81;4272557;33;20363;-94
2020/12/18 02:51:25;;;;;;;39.33;18.92;;;;;;;8.72;59.67;100915.63;4273167;33;20104;-95
2020/12/18 02:53:53;;;;;;;39.15;18.15;;;;;;;8.48;59.65;100910.56;4273310;33;20196;-96
2020/12/18 02:56:29;;;;;;;39.78;18.40;;;;;;;8.48;59.65;100905.38;4279262;33;20097;-95
2020/12/18 02:58:54;;;;;;;32.55;17.10;;;;;;;8.32;59.64;100910.63;4273138;33;20452;-95
2020/12/18 03:01:20;;;;;;;35.55;17.77;;;;;;;8.36;59.64;100908.06;4275522;33;20168;-96
2020/12/18 03:03:47;;;;;;;33.65;17.40;;;;;;;8.52;59.66;100909.72;4288748;33;20091;-95
2020/12/18 03:06:15;;;;;;;38.30;17.75;;;;;;;8.71;59.66;100900.94;4314993;33;20072;-95
2020/12/18 03:08:41;;;;;;;37.15;16.90;;;;;;;8.56;59.65;100907.09;4277188;33;20158;-93
2020/12/18 03:11:06;;;;;;;44.25;18.40;;;;;;;8.44;59.65;100904.53;4269354;33;20140;-94
2020/12/18 03:13:32;;;;;;;43.63;18.20;;;;;;;8.26;59.64;100905.44;4269276;33;20100;-93
2020/12/18 03:15:57;;;;;;;37.20;18.83;;;;;;;8.31;59.64;100914.09;4268715;33;20882;-94
2020/12/18 03:18:23;;;;;;;38.55;17.27;;;;;;;8.45;59.65;100902.81;4268737;33;20100;-93
2020/12/18 03:20:48;;;;;;;37.22;16.48;;;;;;;8.53;59.66;100907.13;4265975;33;28309;-92
2020/12/18 03:23:13;;;;;;;35.65;16.15;;;;;;;8.49;59.65;100899.31;4278987;33;20092;-92
2020/12/18 03:25:39;;;;;;;35.85;16.23;;;;;;;8.41;59.65;100908.88;4266481;33;24161;-92
2020/12/18 03:28:04;;;;;;;38.58;16.85;;;;;;;8.17;59.63;100907.22;4267486;33;20156;-91
2020/12/18 03:30:30;;;;;;;38.10;16.30;;;;;;;7.98;59.62;100920.25;4267382;33;20151;-92
2020/12/18 03:32:55;;;;;;;39.30;16.17;;;;;;;7.80;59.62;100920.28;4266658;33;20446;-92
2020/12/18 03:35:21;;;;;;;35.63;15.70;;;;;;;8.06;59.62;100920.25;4266718;33;29835;-92
2020/12/18 03:37:46;;;;;;;42.40;16.58;;;;;;;7.72;59.61;100931.53;4267346;33;20093;-93
2020/12/18 03:40:11;;;;;;;35.53;16.45;;;;;;;7.72;59.61;100922.03;4269730;33;29367;-95
2020/12/18 03:42:37;;;;;;;37.33;15.98;;;;;;;8.01;59.63;100916.78;4270557;33;20120;-95
2020/12/18 03:45:03;;;;;;;42.03;16.37;;;;;;;7.88;59.62;100928.06;4275108;33;20119;-96
2020/12/18 03:47:31;;;;;;;38.00;16.02;;;;;;;8.02;59.63;100921.09;4277361;33;20082;-95
2020/12/18 03:49:57;;;;;;;38.88;15.57;;;;;;;8.04;59.62;100921.09;4287095;33;20104;-94
2020/12/18 03:52:22;;;;;;;37.97;16.67;;;;;;;8.09;59.63;100927.16;4272770;33;20115;-94
2020/12/18 03:54:47;;;;;;;36.75;15.27;;;;;;;8.22;59.63;100918.44;4269020;33;20108;-94
2020/12/18 03:57:13;;;;;;;37.65;14.75;;;;;;;8.19;59.63;100928.81;4281297;33;20104;-94
2020/12/18 03:59:38;;;;;;;76.43;38.33;;;;;;;8.06;59.63;100927.16;4269400;33;20448;-93
2020/12/18 04:02:04;;;;;;;37.30;16.35;;;;;;;7.97;59.62;100930.62;4268527;33;20120;-93
2020/12/18 04:04:29;;;;;;;31.50;13.43;;;;;;;7.94;59.62;100941.00;4269189;33;20104;-94
2020/12/18 04:06:54;;;;;;;34.83;13.73;;;;;;;7.70;59.61;100939.31;4268938;33;20491;-93
2020/12/18 04:09:22;;;;;;;27.40;12.25;;;;;;;7.73;59.61;100938.44;4267933;33;21836;-93
2020/12/18 04:11:47;;;;;;;30.98;12.63;;;;;;;7.63;59.61;100941.06;4270024;33;20101;-94
2020/12/18 04:14:13;;;;;;;30.58;13.05;;;;;;;7.65;59.60;100939.34;4269377;33;20110;-95
2020/12/18 04:16:38;;;;;;;31.45;13.43;;;;;;;7.67;59.60;100940.19;4268759;33;20152;-92
2020/12/18 04:19:04;;;;;;;27.30;11.82;;;;;;;7.65;59.61;100933.28;4267335;33;23482;-93
2020/12/18 04:21:29;;;;;;;32.42;12.20;;;;;;;7.70;59.61;100939.31;4266857;33;20163;-92
2020/12/18 04:23:55;;;;;;;25.60;11.07;;;;;;;7.79;59.61;100941.03;4267454;33;20108;-93
2020/12/18 04:26:20;;;;;;;22.90;10.63;;;;;;;7.92;59.62;100940.16;4267491;33;32018;-93
2020/12/18 04:28:45;;;;;;;30.02;11.18;;;;;;;7.59;59.60;100938.47;4266954;33;25403;-93
2020/12/18 04:31:11;;;;;;;32.03;12.95;;;;;;;7.99;59.63;100941.84;4268870;33;20120;-95
2020/12/18 04:33:36;;;;;;;29.55;12.45;;;;;;;7.68;59.60;100943.62;4272426;33;20124;-95
2020/12/18 04:36:02;;;;;;;29.60;11.68;;;;;;;7.60;59.59;100935.88;4268117;33;20097;-93
2020/12/18 04:38:27;;;;;;;26.98;11.88;;;;;;;7.59;59.60;100947.12;4267726;33;20108;-94
2020/12/18 04:40:53;;;;;;;28.92;12.35;;;;;;;7.86;59.62;100942.75;4267564;33;23354;-94
2020/12/18 04:43:18;;;;;;;28.30;12.57;;;;;;;7.77;59.62;100945.34;4268142;33;20144;-93
2020/12/18 04:45:44;;;;;;;29.12;12.68;;;;;;;7.91;59.61;100938.41;4267312;33;35032;-94
2020/12/18 04:48:10;;;;;;;37.03;14.32;;;;;;;8.12;59.63;100940.97;4267966;33;20147;-93
2020/12/18 04:50:35;;;;;;;29.58;13.05;;;;;;;7.92;59.63;100943.59;4279794;33;25058;-94
2020/12/18 04:53:01;;;;;;;32.53;13.25;;;;;;;7.87;59.62;100947.94;4269192;33;20114;-96
2020/12/18 04:55:27;;;;;;;35.28;13.85;;;;;;;7.89;59.62;100943.62;4279559;33;20075;-96
2020/12/18 04:57:53;;;;;;;27.92;13.88;;;;;;;7.93;59.62;100939.28;4292828;33;20121;-96
2020/12/18 05:00:19;;;;;;;37.28;14.32;;;;;;;8.06;59.62;100941.00;4276054;33;20817;-95
2020/12/18 05:02:44;;;;;;;32.92;13.40;;;;;;;8.10;59.63;100945.28;4268573;33;20135;-93
2020/12/18 05:05:10;;;;;;;33.47;14.45;;;;;;;7.94;59.62;100947.06;4266816;33;20286;-94
2020/12/18 05:07:39;;;;;;;32.63;12.48;;;;;;;8.07;59.63;100950.50;4272581;33;20150;-95
2020/12/18 05:10:09;;;;;;;30.02;12.43;;;;;;;8.29;59.63;100946.09;4295859;33;20112;-96
2020/12/18 05:12:36;;;;;;;31.42;13.60;;;;;;;8.00;59.63;100951.34;4288939;33;20076;-96
2020/12/18 05:15:04;;;;;;;28.48;12.35;;;;;;;8.15;59.63;100948.72;4298321;33;20107;-94
2020/12/18 05:17:30;;;;;;;37.30;17.27;;;;;;;8.10;59.63;100960.00;4281688;33;20101;-94
2020/12/18 05:19:56;;;;;;;36.00;13.85;;;;;;;7.95;59.63;100956.56;4267807;33;20100;-93
2020/12/18 05:22:23;;;;;;;39.15;15.20;;;;;;;7.87;59.62;100947.06;4280336;33;20100;-93
2020/12/18 05:24:49;;;;;;;31.52;13.25;;;;;;;8.15;59.63;100948.72;4271530;33;20100;-96
2020/12/18 05:27:14;;;;;;;32.65;14.05;;;;;;;8.13;59.63;100950.47;4274293;33;20132;-95
2020/12/18 05:29:39;;;;;;;33.60;14.73;;;;;;;8.07;59.62;100960.00;4271023;33;20382;-96
2020/12/18 05:32:05;;;;;;;38.67;18.52;;;;;;;8.08;59.64;100957.41;4270851;33;20100;-96
2020/12/18 05:34:30;;;;;;;33.13;14.23;;;;;;;8.11;59.63;100954.81;4270642;33;20251;-96
2020/12/18 05:36:56;;;;;;;38.33;15.40;;;;;;;7.96;59.62;100960.88;4269926;33;20172;-94
2020/12/18 05:39:21;;;;;;;32.20;13.80;;;;;;;7.98;59.62;100971.25;4269728;33;20112;-96
2020/12/18 05:41:58;;;;;;;25.05;10.73;;;;;;;7.98;59.62;100966.06;4270903;33;20104;-95
2020/12/18 05:44:26;;;;;;;24.85;10.80;;;;;;;7.59;59.60;100980.81;4270819;33;20155;-96
2020/12/18 05:46:52;;;;;;;24.87;10.40;;;;;;;7.98;59.62;100973.81;4271933;33;20128;-96
2020/12/18 05:49:27;;;;;;;21.95;10.20;;;;;;;7.96;59.62;100976.44;4271700;33;20128;-95
2020/12/18 05:51:53;;;;;;;25.73;11.32;;;;;;;7.93;59.63;100983.34;4271955;33;20088;-95
2020/12/18 05:54:19;;;;;;;28.35;11.50;;;;;;;7.99;59.63;100988.53;4271594;33;20136;-95
2020/12/18 05:56:46;;;;;;;30.45;13.20;;;;;;;7.77;59.61;100987.69;4283444;33;20152;-95
2020/12/18 05:59:15;;;;;;;33.30;14.05;;;;;;;8.04;59.62;100988.50;4271552;33;20154;-95
2020/12/18 06:01:43;;;;;;;33.45;14.48;;;;;;;7.97;59.62;100987.66;4296277;33;20087;-95
2020/12/18 06:04:16;;;;;;;31.15;13.35;;;;;;;7.52;59.60;100981.66;4272021;33;20155;-96
2020/12/18 06:06:46;;;;;;;27.85;11.38;;;;;;;7.80;59.61;100992.84;4272312;33;20113;-96
2020/12/18 06:09:12;;;;;;;26.87;11.10;;;;;;;7.69;59.61;101005.84;4271779;33;20104;-95
2020/12/18 06:11:38;;;;;;;32.08;13.05;;;;;;;8.04;59.63;100996.28;4271340;33;20084;-96
2020/12/18 06:14:04;;;;;;;34.08;13.00;;;;;;;8.11;59.63;100998.03;4271467;33;20119;-95
2020/12/18 06:16:30;;;;;;;38.22;13.57;;;;;;;8.04;59.62;101004.94;4271977;33;20101;-96
2020/12/18 06:19:05;;;;;;;29.90;12.73;;;;;;;7.83;59.62;101004.97;4272013;33;20969;-95
2020/12/18 06:22:15;;;;;;;26.25;11.48;;;;;;;7.75;59.61;101006.69;4273300;33;20191;-95
2020/12/18 06:24:51;;;;;;;34.55;12.65;;;;;;;8.12;59.63;101010.13;4301987;33;20091;-96
2020/12/18 06:27:32;;;;;;;33.22;13.30;;;;;;;8.15;59.64;101015.28;4318078;33;20128;-96
2020/12/18 06:30:08;;;;;;;32.25;12.57;;;;;;;8.07;59.62;101014.47;4317495;33;20116;-96
2020/12/18 06:32:33;;;;;;;34.42;13.18;;;;;;;7.94;59.62;101016.19;4282547;33;20126;-96
2020/12/18 06:35:27;;;;;;;35.40;13.85;;;;;;;8.03;59.63;101018.75;4271418;33;20439;-96
2020/12/18 06:37:52;;;;;;;37.63;14.23;;;;;;;7.79;59.61;101029.16;4294780;33;20108;-95
2020/12/18 06:40:31;;;;;;;30.80;14.15;;;;;;;7.86;59.62;101033.50;4271129;33;20164;-95
2020/12/18 06:42:58;;;;;;;38.73;14.50;;;;;;;8.03;59.63;101031.72;4282632;33;20092;-95
2020/12/18 06:45:24;;;;;;;41.58;15.57;;;;;;;7.96;59.62;101030.00;4273070;33;20109;-94
2020/12/18 06:47:49;;;;;;;42.25;16.27;;;;;;;7.56;59.60;101034.31;4273325;33;20172;-95
2020/12/18 06:50:39;;;;;;;39.88;14.38;;;;;;;7.63;59.61;101034.34;4277333;33;20170;-96
2020/12/18 06:53:05;;;;;;;35.92;14.63;;;;;;;7.47;59.59;101036.91;4300191;33;20061;-96
2020/12/18 06:55:35;;;;;;;35.05;14.20;;;;;;;7.79;59.61;101029.16;4272536;33;20112;-96
2020/12/18 06:58:04;;;;;;;;;;;;;;;7.75;59.61;101035.19;4284881;33;20136;-96
2020/12/18 07:00:30;;;;;;;40.00;16.15;;;;;;;8.04;59.62;101042.97;4296890;33;20030;-96
2020/12/18 07:02:56;;;;;;;33.92;14.43;;;;;;;8.02;59.63;101045.56;4274656;33;20100;-96
2020/12/18 07:05:38;;;;;;;34.47;14.10;;;;;;;7.99;59.63;101042.97;4273155;33;20100;-96
2020/12/18 07:08:13;;;;;;;39.35;17.12;;;;;;;7.77;59.61;101049.88;4280642;33;20103;-96
2020/12/18 07:10:46;;;;;;;35.40;14.73;;;;;;;7.69;59.62;101044.72;4278023;33;20146;-96
2020/12/18 07:13:20;;;;;;;33.92;14.15;;;;;;;7.90;59.61;101040.41;4273230;33;20082;-96
2020/12/18 07:15:46;;;;;;;39.10;14.38;;;;;;;7.66;59.60;101047.31;4284916;33;20735;-96
2020/12/18 07:18:23;;;;;;;34.83;12.93;;;;;;;7.90;59.61;101048.16;4297390;33;20143;-96
2020/12/18 07:20:53;;;;;;;39.70;15.60;;;;;;;7.56;59.60;101035.19;4295076;33;20081;-96
2020/12/18 07:23:19;;;;;;;35.97;15.38;;;;;;;7.77;59.61;101036.94;4270463;33;20443;-96
2020/12/18 07:25:45;;;;;;;34.42;13.52;;;;;;;7.77;59.61;101042.09;4270055;33;20093;-96
2020/12/18 07:28:11;;;;;;;43.25;17.55;;;;;;;7.85;59.62;101034.34;4270945;33;20108;-96
2020/12/18 07:31:46;;;;;;;37.40;15.70;;;;;;;7.74;59.61;101033.47;4289522;33;20937;-96
2020/12/18 07:35:37;;;;;;;42.08;16.55;;;;;;;7.94;59.63;101036.94;4273333;33;20139;-96
2020/12/18 07:38:23;;;;;;;84.57;33.78;;;;;;;7.88;59.62;101036.94;4262273;33;20066;-96
2020/12/18 07:41:10;;;;;;;126.25;46.05;;;;;;;7.77;59.61;101044.69;4270451;33;20108;-96
2020/12/18 07:43:52;;;;;;;123.15;44.97;;;;;;;7.92;59.62;101044.72;4260303;33;20089;-96
2020/12/18 07:47:05;;;;;;;63.70;25.50;;;;;;;7.61;59.61;101038.66;4272409;33;20092;-96
2020/12/18 07:49:41;;;;;;;40.12;16.75;;;;;;;7.42;59.59;101052.47;4272705;33;20197;-96
2020/12/18 07:52:51;;;;;;;33.67;13.55;;;;;;;7.42;59.59;101057.63;4273310;33;20078;-95
2020/12/18 07:55:40;;;;;;;35.20;12.98;;;;;;;7.43;59.59;101058.50;4260594;33;20097;-96
2020/12/18 07:59:03;;;;;;;40.92;15.13;;;;;;;7.55;59.60;101064.56;4260357;33;20119;-96
2020/12/18 08:04:58;;;;;;;46.67;16.35;;;;;;;7.22;59.58;101064.50;4262291;33;20131;-95
2020/12/18 08:08:12;;;;;;;35.17;14.52;;;;;;;7.20;59.58;101061.91;4287979;33;20082;-96
2020/12/18 08:10:42;;;;;;;38.63;16.90;;;;;;;7.48;59.60;101061.97;4270878;33;20173;-94
2020/12/18 08:13:12;;;;;;;36.13;14.38;;;;;;;7.24;59.58;101062.78;4274191;33;20129;-95
2020/12/18 08:15:40;;;;;;;41.37;15.55;;;;;;;7.37;59.59;101074.91;4283037;33;20161;-96
2020/12/18 08:18:09;;;;;;;35.40;15.00;;;;;;;7.62;59.61;101075.81;4272044;33;20082;-96
2020/12/18 08:23:41;;;;;;;42.40;16.58;;;;;;;7.70;59.62;101074.09;4298056;33;20315;-95
2020/12/18 08:26:07;;;;;;;36.15;13.93;;;;;;;7.72;59.61;101069.75;4289217;33;20116;-96
2020/12/18 08:28:33;;;;;;;31.42;12.55;;;;;;;7.62;59.61;101083.59;4278419;33;20431;-96
2020/12/18 08:31:05;;;;;;;28.92;13.00;;;;;;;7.58;59.60;101089.62;4304716;33;20149;-95
2020/12/18 08:33:38;;;;;;;39.40;18.45;;;;;;;7.36;59.59;101083.53;4304244;33;20069;-95
2020/12/18 08:36:05;;;;;;;31.73;13.77;;;;;;;7.55;59.61;101080.09;4302725;33;20072;-95
2020/12/18 08:38:31;;;;;;;32.53;13.35;;;;;;;7.27;59.58;101093.84;4296047;33;20844;-95
2020/12/18 08:41:02;;;;;;;35.75;15.20;;;;;;;7.19;59.58;101088.66;4273941;33;20123;-96
2020/12/18 08:43:28;;;;;;;38.90;15.05;;;;;;;6.95;59.57;101088.56;4299346;33;20775;-95
2020/12/18 08:45:56;;;;;;;36.45;15.30;;;;;;;6.91;59.56;101092.88;4273603;33;20141;-96
2020/12/18 08:48:32;;;;;;;35.17;15.90;;;;;;;7.28;59.58;101088.69;4277137;33;20097;-96
2020/12/18 08:51:10;;;;;;;37.97;15.90;;;;;;;7.39;59.58;101089.59;4314524;33;20083;-96
2020/12/18 08:53:37;;;;;;;32.08;13.80;;;;;;;7.49;59.60;101089.59;4297742;33;20124;-96
2020/12/18 08:56:08;;;;;;;37.40;15.70;;;;;;;7.33;59.59;101091.28;4284609;33;20187;-95
2020/12/18 08:58:34;;;;;;;36.95;14.32;;;;;;;7.44;59.60;101084.41;4272015;33;20108;-95
2020/12/18 09:01:02;;;;;;;35.75;15.90;;;;;;;7.30;59.58;101084.37;4271057;33;20143;-95
2020/12/18 09:03:41;;;;;;;36.13;15.73;;;;;;;7.41;59.59;101094.78;4271945;33;20100;-96
2020/12/18 09:06:14;;;;;;;31.70;13.65;;;;;;;7.63;59.61;101093.94;4278936;33;20103;-95
2020/12/18 09:08:40;;;;;;;36.92;15.93;;;;;;;7.62;59.61;101093.94;4276100;33;20845;-92
2020/12/18 09:11:06;;;;;;;32.25;15.05;;;;;;;7.53;59.60;101096.50;4271433;33;20105;-95
2020/12/18 09:13:31;;;;;;;27.98;12.85;;;;;;;7.85;59.62;101097.44;4274592;33;20112;-94
2020/12/18 09:16:05;;;;;;;35.55;16.65;;;;;;;7.58;59.60;101087.91;4271698;33;20395;-96
2020/12/18 09:18:38;;;;;;;41.03;15.85;;;;;;;7.49;59.60;101089.59;4288360;33;20085;-96
2020/12/18 09:21:17;;;;;;;29.20;13.20;;;;;;;7.80;59.62;101093.09;4277327;33;20087;-96
2020/12/18 09:23:48;;;;;;;27.95;13.50;;;;;;;7.78;59.61;101097.41;4293954;33;20069;-96
2020/12/18 09:26:26;;;;;;;27.80;11.85;;;;;;;7.82;59.61;101099.16;4305471;33;20108;-96
2020/12/18 09:28:52;;;;;;;30.73;13.18;;;;;;;7.99;59.63;101093.09;4291966;33;20103;-96
2020/12/18 09:31:17;;;;;;;37.13;14.57;;;;;;;7.65;59.61;101089.62;4274077;33;20096;-96
2020/12/18 09:33:43;;;;;;;28.55;13.95;;;;;;;7.89;59.62;101090.53;4283270;33;20135;-96
2020/12/18 09:36:10;;;;;;;31.30;13.73;;;;;;;7.86;59.62;101096.56;4284337;33;20415;-94
2020/12/18 09:38:41;;;;;;;28.73;13.90;;;;;;;8.01;59.63;101098.28;4271991;33;20187;-96
2020/12/18 09:41:19;;;;;;;29.17;13.52;;;;;;;7.99;59.63;101087.91;4278331;33;20107;-96
2020/12/18 09:43:45;;;;;;;30.65;13.50;;;;;;;8.01;59.63;101091.37;4272479;33;20502;-96
2020/12/18 09:46:13;;;;;;;29.92;13.43;;;;;;;8.22;59.64;101098.28;4273958;33;20108;-96
2020/12/18 09:48:44;;;;;;;33.42;14.35;;;;;;;7.90;59.61;101095.69;4273452;33;20142;-96
2020/12/18 09:51:17;;;;;;;30.50;13.25;;;;;;;8.10;59.63;101092.25;4300229;33;20104;-96
2020/12/18 09:53:43;;;;;;;30.65;13.20;;;;;;;7.69;59.61;101091.34;4303312;33;20068;-96
2020/12/18 09:56:13;;;;;;;33.40;13.57;;;;;;;7.59;59.60;101092.22;4273511;33;20131;-96
2020/12/18 09:58:39;;;;;;;28.52;11.77;;;;;;;7.77;59.62;101100.88;4275013;33;20135;-96
2020/12/18 10:01:05;;;;;;;27.45;12.25;;;;;;;7.68;59.60;101089.62;4296361;33;20096;-96
2020/12/18 10:03:31;;;;;;;31.17;13.30;;;;;;;7.85;59.62;101088.78;4284527;33;20452;-96
2020/12/18 10:05:58;;;;;;;30.88;12.85;;;;;;;7.77;59.60;101095.69;4288806;33;20799;-95
2020/12/18 10:08:25;;;;;;;29.90;12.45;;;;;;;7.76;59.62;101089.62;4308197;33;20096;-96
2020/12/18 10:10:51;;;;;;;29.27;12.63;;;;;;;7.88;59.62;101089.66;4283356;33;20100;-95
2020/12/18 10:13:19;;;;;;;31.20;13.32;;;;;;;7.58;59.60;101082.72;4283251;33;20501;-95
2020/12/18 10:15:46;;;;;;;28.40;13.77;;;;;;;7.39;59.58;101087.00;4285415;33;20785;-96
2020/12/18 10:18:12;;;;;;;33.05;13.85;;;;;;;7.34;59.59;101091.31;4295130;33;20084;-96
2020/12/18 10:20:38;;;;;;;29.30;13.07;;;;;;;7.67;59.61;101089.62;4273801;33;20139;-96
2020/12/18 10:23:04;;;;;;;25.00;11.48;;;;;;;7.72;59.61;101092.22;4300194;33;20132;-96
2020/12/18 10:25:30;;;;;;;27.83;12.30;;;;;;;7.49;59.60;101100.81;4274669;33;20134;-96
2020/12/18 10:28:02;;;;;;;29.27;12.10;;;;;;;7.35;59.59;101098.22;4274991;33;20159;-95
2020/12/18 10:30:28;;;;;;;26.98;10.55;;;;;;;7.49;59.60;101095.63;4284598;33;20117;-95
2020/12/18 10:32:53;;;;;;;31.70;11.38;;;;;;;7.52;59.59;101099.97;4270622;33;20136;-95
2020/12/18 10:35:19;;;;;;;33.50;11.45;;;;;;;7.36;59.59;101097.34;4270635;33;20179;-96
2020/12/18 10:37:46;;;;;;;29.73;12.77;;;;;;;7.42;59.59;101101.69;4270005;33;20108;-95
2020/12/18 10:40:14;;;;;;;26.52;12.32;;;;;;;7.18;59.58;101097.28;4282810;33;20092;-96
2020/12/18 10:43:05;;;;;;;26.48;11.25;;;;;;;7.54;59.59;101091.31;4287984;33;20086;-96
2020/12/18 10:45:38;;;;;;;33.60;12.93;;;;;;;7.77;59.62;101085.31;4303366;33;20101;-94
2020/12/18 10:48:04;;;;;;;23.23;11.23;;;;;;;7.76;59.61;101088.78;4284980;33;20076;-96
2020/12/18 10:50:31;;;;;;;27.33;11.12;;;;;;;7.85;59.62;101084.47;4297413;33;20114;-96
2020/12/18 10:53:00;;;;;;;24.70;11.38;;;;;;;7.44;59.59;101080.97;4300467;33;20085;-96
2020/12/18 10:55:26;;;;;;;25.40;10.48;;;;;;;7.91;59.62;101081.88;4277968;33;20111;-95
2020/12/18 10:57:52;;;;;;;29.60;12.68;;;;;;;7.58;59.60;101079.28;4275819;33;20352;-95
2020/12/18 11:00:17;;;;;;;25.02;11.85;;;;;;;7.55;59.60;101077.50;4272003;33;20110;-95
2020/12/18 11:02:44;;;;;;;29.92;12.25;;;;;;;7.69;59.62;101073.22;4298401;33;20172;-96
2020/12/18 11:05:12;;;;;;;31.80;13.50;;;;;;;7.61;59.61;101077.53;4283960;33;20140;-95
2020/12/18 11:07:38;;;;;;;28.65;11.02;;;;;;;7.75;59.61;101069.75;4282607;33;20130;-95
2020/12/18 11:10:03;;;;;;;27.77;10.30;;;;;;;7.99;59.63;101071.50;4271847;33;20097;-95
2020/12/18 11:12:29;;;;;;;30.60;12.57;;;;;;;7.88;59.62;101062.88;4270350;33;20161;-96
2020/12/18 11:14:54;;;;;;;29.17;11.55;;;;;;;8.14;59.64;101066.31;4270693;33;20138;-96
2020/12/18 11:17:20;;;;;;;28.75;11.60;;;;;;;7.53;59.59;101055.91;4269948;33;20103;-96
2020/12/18 11:19:52;;;;;;;30.35;11.90;;;;;;;7.82;59.62;101062.88;4270892;33;20100;-94
2020/12/18 11:22:18;;;;;;;27.35;11.30;;;;;;;7.99;59.63;101058.53;4287634;33;20069;-93
2020/12/18 11:25:05;;;;;;;29.65;13.15;;;;;;;8.02;59.63;101058.53;4286649;33;20104;-96
2020/12/18 11:27:30;;;;;;;25.50;11.70;;;;;;;8.13;59.63;101058.53;4295770;33;20171;-94
2020/12/18 11:29:56;;;;;;;30.00;12.00;;;;;;;8.07;59.62;101058.53;4268843;33;20482;-95
2020/12/18 11:32:21;;;;;;;27.52;12.30;;;;;;;8.14;59.64;101061.13;4268358;33;20112;-94